Time;durP1;ratioP1;P1;durP2;ratioP2;P2;SDS_P1;SDS_P2;PMS_P1;PMS_P2;Temp;Humidity;BMP_temperature;BMP_pressure;BME280_temperature;BME280_humidity;BME280_pressure;Samples;Min_cycle;Max_cycle;Signal;HPM_P1;HPM_P2
2020/12/31 00:00:14;;;;;;;7.43;6.90;;;;;;;0.52;100.00;97164.66;4994127;28;20232;-69
2020/12/31 00:02:41;;;;;;;7.80;7.10;;;;;;;0.49;100.00;97168.31;4998496;28;20235;-69
2020/12/31 00:05:08;;;;;;;7.77;7.10;;;;;;;0.40;100.00;97163.84;4993896;28;20235;-69
2020/12/31 00:07:34;;;;;;;8.00;7.30;;;;;;;0.32;100.00;97163.59;4993237;28;20206;-69
2020/12/31 00:10:03;;;;;;;7.33;6.73;;;;;;;0.33;100.00;97163.47;4996822;28;20213;-69
2020/12/31 00:12:30;;;;;;;7.90;7.20;;;;;;;0.36;100.00;97160.63;4992981;28;20992;-69
2020/12/31 00:14:57;;;;;;;8.13;7.47;;;;;;;0.45;100.00;97161.69;4996478;28;20209;-69
2020/12/31 00:17:24;;;;;;;6.93;6.43;;;;;;;0.56;100.00;97156.44;4994610;28;20217;-69
2020/12/31 00:19:51;;;;;;;8.07;7.30;;;;;;;0.33;100.00;97158.25;4996044;28;20225;-68
2020/12/31 00:22:18;;;;;;;8.07;7.27;;;;;;;0.42;100.00;97160.16;4999300;28;20235;-69
2020/12/31 00:24:45;;;;;;;8.33;7.57;;;;;;;0.38;100.00;97155.31;4995908;28;20650;-69
2020/12/31 00:27:13;;;;;;;7.60;7.00;;;;;;;0.45;100.00;97160.88;4996325;28;20682;-70
2020/12/31 00:29:39;;;;;;;7.73;7.03;;;;;;;0.38;100.00;97153.53;4998811;28;20769;-68
2020/12/31 00:32:06;;;;;;;8.83;7.97;;;;;;;0.36;100.00;97157.22;4997879;28;20261;-69
2020/12/31 00:34:34;;;;;;;7.40;6.80;;;;;;;0.38;100.00;97160.53;4994678;28;20727;-70
2020/12/31 00:37:01;;;;;;;7.17;6.67;;;;;;;0.21;100.00;97154.84;4998970;28;20216;-69
2020/12/31 00:39:29;;;;;;;8.07;7.20;;;;;;;0.26;100.00;97157.09;4998118;28;20594;-70
2020/12/31 00:41:56;;;;;;;7.30;6.73;;;;;;;0.16;100.00;97151.75;4997897;28;20785;-69
2020/12/31 00:44:24;;;;;;;7.23;6.73;;;;;;;0.13;100.00;97150.22;4996960;28;20206;-68
2020/12/31 00:46:51;;;;;;;9.50;8.70;;;;;;;0.11;100.00;97148.69;4997707;28;20246;-69
2020/12/31 00:49:18;;;;;;;8.37;7.63;;;;;;;0.16;100.00;97143.13;4999761;28;20210;-70
2020/12/31 00:51:45;;;;;;;8.00;7.37;;;;;;;0.07;100.00;97148.09;4999958;28;20225;-69
2020/12/31 00:54:12;;;;;;;8.30;7.53;;;;;;;0.05;100.00;97144.78;4995462;28;20223;-70
2020/12/31 00:56:39;;;;;;;7.53;6.93;;;;;;;0.10;100.00;97141.81;4995966;28;20218;-68
2020/12/31 00:59:06;;;;;;;8.03;6.67;;;;;;;0.14;100.00;97145.84;4996966;28;20210;-70
2020/12/31 01:01:34;;;;;;;7.70;7.00;;;;;;;0.17;100.00;97156.03;4997862;28;20625;-68
2020/12/31 01:04:01;;;;;;;7.43;6.87;;;;;;;0.19;100.00;97148.94;4995224;28;20210;-70
2020/12/31 01:06:35;;;;;;;8.00;7.40;;;;;;;0.13;100.00;97147.63;4995352;28;20205;-68
2020/12/31 01:09:06;;;;;;;7.97;7.27;;;;;;;0.22;100.00;97153.91;4997819;28;20208;-68
2020/12/31 01:11:33;;;;;;;7.80;7.20;;;;;;;0.20;100.00;97152.34;4996589;28;20779;-69
2020/12/31 01:14:00;;;;;;;8.30;7.53;;;;;;;0.26;100.00;97146.66;4998951;28;20200;-70
2020/12/31 01:16:27;;;;;;;7.80;7.03;;;;;;;0.30;100.00;97157.69;5001121;28;20243;-70
2020/12/31 01:18:54;;;;;;;7.87;7.17;;;;;;;0.32;100.00;97161.00;4999142;28;20205;-69
2020/12/31 01:21:21;;;;;;;7.70;6.90;;;;;;;0.33;100.00;97163.47;5000758;28;20718;-70
2020/12/31 01:23:49;;;;;;;8.03;7.33;;;;;;;0.19;100.00;97158.53;4995353;28;20213;-69
2020/12/31 01:26:29;;;;;;;7.57;6.97;;;;;;;0.24;100.00;97159.84;4997665;28;20295;-69
2020/12/31 01:28:56;;;;;;;7.53;7.00;;;;;;;0.14;100.00;97154.50;4998777;28;20210;-69
2020/12/31 01:31:23;;;;;;;6.37;5.87;;;;;;;0.04;100.00;97148.34;4999969;28;20208;-69
2020/12/31 01:33:50;;;;;;;8.27;7.53;;;;;;;-0.04;100.00;97150.69;4995112;28;20205;-69
2020/12/31 01:36:18;;;;;;;7.60;6.90;;;;;;;0.11;100.00;97146.06;4997267;28;20216;-69
2020/12/31 01:38:45;;;;;;;8.23;7.43;;;;;;;0.18;100.00;97146.44;4995931;28;20213;-70
2020/12/31 01:41:13;;;;;;;8.40;7.70;;;;;;;0.20;100.00;97147.16;5000145;28;20212;-69
2020/12/31 01:43:40;;;;;;;7.73;6.87;;;;;;;0.30;100.00;97153.28;5002284;28;20213;-69
2020/12/31 01:46:10;;;;;;;7.20;6.70;;;;;;;0.28;100.00;97150.81;4993768;28;20206;-70
2020/12/31 01:48:38;;;;;;;8.03;7.40;;;;;;;0.27;100.00;97149.16;4996626;28;20863;-70
2020/12/31 01:51:05;;;;;;;7.90;7.30;;;;;;;0.19;100.00;97156.75;4997147;28;20275;-70
2020/12/31 01:53:33;;;;;;;8.23;7.53;;;;;;;0.17;100.00;97153.41;4998331;28;20283;-70
2020/12/31 01:56:01;;;;;;;8.70;7.90;;;;;;;0.26;100.00;97159.69;4997519;28;20219;-70
2020/12/31 01:58:28;;;;;;;8.07;7.37;;;;;;;0.15;100.00;97163.13;4996326;28;20202;-70
2020/12/31 02:00:56;;;;;;;8.40;7.63;;;;;;;0.37;100.00;97164.88;4992440;28;20451;-70
2020/12/31 02:03:23;;;;;;;7.53;7.03;;;;;;;0.42;100.00;97167.16;4998028;28;20233;-69
2020/12/31 02:05:50;;;;;;;7.90;7.10;;;;;;;0.36;100.00;97168.44;4996527;28;20673;-69
2020/12/31 02:08:17;;;;;;;8.03;7.33;;;;;;;0.33;100.00;97170.47;4997714;28;20209;-69
2020/12/31 02:10:45;;;;;;;8.90;8.20;;;;;;;0.33;100.00;97167.88;4995397;28;20577;-70
2020/12/31 02:13:22;;;;;;;7.83;7.20;;;;;;;0.39;100.00;97170.84;4991920;28;20222;-68
2020/12/31 02:16:10;;;;;;;7.57;7.03;;;;;;;0.38;100.00;97169.19;4994771;28;20205;-69
2020/12/31 02:18:49;;;;;;;7.87;6.90;;;;;;;0.40;100.00;97169.03;4995295;28;20637;-70
2020/12/31 02:21:18;;;;;;;6.47;6.00;;;;;;;0.34;100.00;97169.53;4991939;28;20201;-70
2020/12/31 02:23:46;;;;;;;7.83;7.23;;;;;;;0.33;100.00;97176.50;4996409;28;20201;-69
2020/12/31 02:26:13;;;;;;;8.63;7.93;;;;;;;0.40;100.00;97180.31;4995654;28;20211;-69
2020/12/31 02:28:40;;;;;;;9.30;8.50;;;;;;;0.40;100.00;97174.25;4996889;28;20209;-69
2020/12/31 02:31:07;;;;;;;8.27;7.47;;;;;;;0.40;100.00;97179.47;4995264;28;20283;-70
2020/12/31 02:33:34;;;;;;;8.50;7.70;;;;;;;0.42;100.00;97180.19;4997691;28;20247;-70
2020/12/31 02:36:01;;;;;;;8.90;8.20;;;;;;;0.60;100.00;97182.31;4997064;28;20205;-70
2020/12/31 02:38:28;;;;;;;7.53;6.83;;;;;;;0.42;100.00;97186.25;4995086;28;20225;-70
2020/12/31 02:40:56;;;;;;;8.07;7.37;;;;;;;0.46;100.00;97183.38;4998776;28;20213;-70
2020/12/31 02:43:23;;;;;;;7.73;7.07;;;;;;;0.37;100.00;97182.31;4997709;28;20248;-70
2020/12/31 02:45:50;;;;;;;7.73;7.03;;;;;;;0.30;100.00;97179.34;4993355;28;20209;-70
2020/12/31 02:48:17;;;;;;;7.77;7.07;;;;;;;0.32;100.00;97177.44;4995463;28;20646;-70
2020/12/31 02:50:44;;;;;;;8.50;7.70;;;;;;;0.26;100.00;97181.38;4998432;28;20231;-70
2020/12/31 02:53:11;;;;;;;11.30;7.90;;;;;;;0.24;100.00;97183.28;4997370;28;20232;-70
2020/12/31 02:55:38;;;;;;;7.47;6.87;;;;;;;0.21;100.00;97182.69;4996670;28;20213;-70
2020/12/31 02:58:06;;;;;;;7.80;6.93;;;;;;;0.19;100.00;97179.38;4994042;28;20205;-70
2020/12/31 03:00:33;;;;;;;8.30;7.50;;;;;;;0.21;100.00;97180.91;4996667;28;20209;-70
2020/12/31 03:02:59;;;;;;;8.40;7.70;;;;;;;0.13;100.00;97173.69;4994930;28;20393;-68
2020/12/31 03:05:26;;;;;;;8.63;7.93;;;;;;;0.07;100.00;97162.91;4991097;28;20796;-69
2020/12/31 03:07:53;;;;;;;8.20;7.57;;;;;;;0.18;100.00;97157.69;4996438;28;20205;-70
2020/12/31 03:10:20;;;;;;;8.43;7.73;;;;;;;0.16;100.00;97156.97;4995704;28;20212;-71
2020/12/31 03:12:47;;;;;;;8.13;7.43;;;;;;;0.32;100.00;97161.00;4997322;28;20224;-70
2020/12/31 03:15:18;;;;;;;7.97;7.33;;;;;;;0.27;100.00;97159.59;4990244;28;20529;-69
2020/12/31 03:17:45;;;;;;;8.07;7.37;;;;;;;0.21;100.00;97165.28;4995080;28;20300;-70
2020/12/31 03:20:12;;;;;;;8.40;7.77;;;;;;;0.22;100.00;97159.13;4994958;28;20208;-69
2020/12/31 03:22:39;;;;;;;8.37;7.67;;;;;;;0.22;100.00;97155.69;4996372;28;20248;-70
2020/12/31 03:25:07;;;;;;;8.70;8.00;;;;;;;0.09;100.00;97151.44;4992083;28;20204;-70
2020/12/31 03:27:34;;;;;;;8.97;8.27;;;;;;;-0.09;100.00;97150.22;4997598;28;20205;-70
2020/12/31 03:30:02;;;;;;;8.33;7.73;;;;;;;-0.17;100.00;97151.66;4992244;28;20225;-69
2020/12/31 03:32:30;;;;;;;9.17;8.23;;;;;;;-0.07;100.00;97145.72;4996429;28;20308;-70
2020/12/31 03:34:57;;;;;;;8.70;8.00;;;;;;;-0.32;100.00;97150.22;4993119;28;20216;-69
2020/12/31 03:37:25;;;;;;;9.33;8.43;;;;;;;-0.27;100.00;97150.69;4995925;28;20365;-70
2020/12/31 03:39:52;;;;;;;8.83;8.07;;;;;;;-0.51;100.00;97143.78;4994800;28;20252;-69
2020/12/31 03:42:19;;;;;;;7.93;7.33;;;;;;;-0.56;100.00;97139.88;4993496;28;20692;-68
2020/12/31 03:44:46;;;;;;;9.37;8.47;;;;;;;-0.78;100.00;97141.47;4996544;28;20228;-69
2020/12/31 03:47:14;;;;;;;8.10;7.50;;;;;;;-0.91;100.00;97131.97;4996166;28;20205;-70
2020/12/31 03:49:42;;;;;;;9.03;8.23;;;;;;;-1.09;100.00;97130.72;4991008;28;20216;-69
2020/12/31 03:52:09;;;;;;;9.00;8.17;;;;;;;-1.04;100.00;97139.00;4995505;28;20220;-69
2020/12/31 03:54:36;;;;;;;8.90;8.10;;;;;;;-0.93;100.00;97133.03;4996170;28;20468;-69
2020/12/31 03:57:03;;;;;;;8.20;7.50;;;;;;;-0.98;100.00;97138.56;4999074;28;20507;-69
2020/12/31 03:59:30;;;;;;;9.87;9.07;;;;;;;-0.86;100.00;97138.63;5002459;28;20201;-70
2020/12/31 04:01:57;;;;;;;8.30;7.60;;;;;;;-1.00;100.00;97130.03;4998546;28;20229;-69
2020/12/31 04:04:23;;;;;;;9.53;8.73;;;;;;;-1.08;100.00;97127.19;5001333;28;20201;-70
2020/12/31 04:06:51;;;;;;;9.20;8.50;;;;;;;-1.25;100.00;97121.44;5003825;28;20577;-70
2020/12/31 04:09:18;;;;;;;10.20;9.30;;;;;;;-1.40;100.00;97117.34;4997933;28;20235;-69
2020/12/31 04:11:45;;;;;;;10.67;9.77;;;;;;;-1.50;100.00;97115.41;4999033;28;20237;-70
2020/12/31 04:14:12;;;;;;;9.57;8.73;;;;;;;-1.59;100.00;97105.69;4997733;28;20828;-70
2020/12/31 04:16:39;;;;;;;9.77;8.87;;;;;;;-1.68;100.00;97106.34;5001854;28;20284;-69
2020/12/31 04:19:06;;;;;;;10.03;9.23;;;;;;;-1.62;100.00;97096.31;4998360;28;20197;-69
2020/12/31 04:21:33;;;;;;;10.60;9.70;;;;;;;-1.57;100.00;97096.00;4997056;28;20217;-69
2020/12/31 04:24:01;;;;;;;10.17;9.23;;;;;;;-1.78;100.00;97101.78;5002963;28;20838;-70
2020/12/31 04:26:28;;;;;;;9.60;8.77;;;;;;;-1.87;100.00;97096.41;5001738;28;20220;-70
2020/12/31 04:28:55;;;;;;;9.77;8.97;;;;;;;-1.88;100.00;97095.56;5001183;28;20212;-70
2020/12/31 04:31:22;;;;;;;10.03;9.13;;;;;;;-1.90;100.00;97087.88;5000283;28;20221;-69
2020/12/31 04:33:49;;;;;;;9.53;8.73;;;;;;;-1.91;100.00;97098.38;5001350;28;20231;-70
2020/12/31 04:36:17;;;;;;;9.80;8.83;;;;;;;-2.01;100.00;97100.78;4991026;28;20606;-69
2020/12/31 04:38:44;;;;;;;9.80;9.00;;;;;;;-2.07;100.00;97096.88;4999595;28;20662;-70
2020/12/31 04:41:13;;;;;;;11.13;10.13;;;;;;;-2.17;100.00;97098.44;4996004;28;20692;-68
2020/12/31 04:43:40;;;;;;;9.73;8.93;;;;;;;-2.25;100.00;97098.97;4999985;28;20491;-69
2020/12/31 04:46:12;;;;;;;9.63;8.80;;;;;;;-2.25;100.00;97091.19;5000022;28;20581;-70
2020/12/31 04:48:42;;;;;;;9.63;8.73;;;;;;;-2.31;100.00;97098.56;4995737;28;20845;-70
2020/12/31 04:51:12;;;;;;;9.23;8.43;;;;;;;-2.37;100.00;97095.47;5001403;28;20200;-70
2020/12/31 04:53:39;;;;;;;9.80;8.87;;;;;;;-2.39;100.00;97091.28;4999090;28;20345;-68
2020/12/31 04:56:11;;;;;;;10.23;9.33;;;;;;;-2.46;100.00;97090.91;4998367;28;20209;-69
2020/12/31 04:58:39;;;;;;;10.97;9.80;;;;;;;-2.34;100.00;97097.84;4993626;28;20752;-68
2020/12/31 05:01:07;;;;;;;10.40;9.50;;;;;;;-2.17;100.00;97088.03;4997091;28;20208;-70
2020/12/31 05:03:34;;;;;;;9.23;8.53;;;;;;;-2.19;100.00;97092.53;4999759;28;20233;-71
2020/12/31 05:06:04;;;;;;;9.90;9.10;;;;;;;-2.22;100.00;97087.53;5001924;28;20209;-69
2020/12/31 05:08:31;;;;;;;10.50;9.60;;;;;;;-1.96;100.00;97092.69;4995146;28;20232;-71
2020/12/31 05:10:58;;;;;;;11.43;10.43;;;;;;;-1.78;100.00;97090.56;4991755;28;20209;-69
2020/12/31 05:13:25;;;;;;;11.00;10.03;;;;;;;-1.76;100.00;97089.50;4994807;28;20217;-71
2020/12/31 05:15:53;;;;;;;10.70;9.70;;;;;;;-1.55;100.00;97091.53;4995236;28;20205;-69
2020/12/31 05:18:21;;;;;;;12.23;11.03;;;;;;;-1.49;100.00;97093.66;4999833;28;20211;-69
2020/12/31 05:20:50;;;;;;;11.23;10.20;;;;;;;-1.52;100.00;97098.25;4999186;28;20213;-70
2020/12/31 05:23:19;;;;;;;10.63;9.63;;;;;;;-1.47;100.00;97101.38;4994406;28;20229;-70
2020/12/31 05:25:46;;;;;;;10.20;9.30;;;;;;;-1.31;100.00;97096.72;5000331;28;20440;-70
2020/12/31 05:28:27;;;;;;;17.63;11.52;;;;;;;-1.26;100.00;97101.59;4994861;28;20438;-66
2020/12/31 05:30:57;;;;;;;12.37;11.10;;;;;;;-1.23;100.00;97100.53;4994262;28;20205;-66
2020/12/31 05:33:25;;;;;;;10.33;9.43;;;;;;;-0.98;100.00;97103.94;4997452;28;20840;-66
2020/12/31 05:35:52;;;;;;;10.40;9.57;;;;;;;-1.00;100.00;97098.00;5000209;28;20209;-67
2020/12/31 05:38:20;;;;;;;11.60;10.60;;;;;;;-0.93;100.00;97101.81;5000163;28;20215;-67
2020/12/31 05:41:07;;;;;;;11.90;10.70;;;;;;;-0.96;100.00;97102.84;4998273;28;20201;-67
2020/12/31 05:43:34;;;;;;;12.23;11.07;;;;;;;-0.99;100.00;97110.06;4999085;28;20225;-66
2020/12/31 05:46:07;;;;;;;12.03;10.93;;;;;;;-0.88;100.00;97112.69;4997297;28;20304;-67
2020/12/31 05:48:34;;;;;;;12.30;11.10;;;;;;;-0.85;100.00;97107.25;4995830;28;20205;-66
2020/12/31 05:51:19;;;;;;;12.67;11.57;;;;;;;-0.73;100.00;97111.56;5000594;28;20317;-68
2020/12/31 05:53:48;;;;;;;11.77;10.67;;;;;;;-0.78;100.00;97111.06;4999220;28;20200;-66
2020/12/31 05:56:16;;;;;;;12.13;11.13;;;;;;;-0.76;100.00;97114.41;5001020;28;20205;-67
2020/12/31 05:58:49;;;;;;;12.33;11.17;;;;;;;-0.76;100.00;97117.00;5001582;28;20212;-67
2020/12/31 06:01:17;;;;;;;11.97;10.87;;;;;;;-0.76;100.00;97126.56;4997383;28;20205;-66
2020/12/31 06:03:53;;;;;;;12.90;11.57;;;;;;;-0.63;100.00;97121.28;5000183;28;20318;-67
2020/12/31 06:06:21;;;;;;;12.07;11.10;;;;;;;-0.70;100.00;97117.50;4995367;28;20502;-66
2020/12/31 06:08:55;;;;;;;12.13;11.10;;;;;;;-0.77;100.00;97130.94;4999259;28;20448;-67
2020/12/31 06:11:34;;;;;;;11.40;10.40;;;;;;;-0.82;100.00;97125.25;4989593;28;20463;-66
2020/12/31 06:14:03;;;;;;;11.77;10.67;;;;;;;-0.73;100.00;97124.59;4997412;28;21001;-66
2020/12/31 06:16:37;;;;;;;12.27;11.17;;;;;;;-0.66;100.00;97124.94;4992049;28;20209;-66
2020/12/31 06:19:29;;;;;;;11.90;10.80;;;;;;;-0.60;100.00;97123.66;4999890;28;20204;-67
2020/12/31 06:22:06;;;;;;;12.33;10.80;;;;;;;-0.70;100.00;97123.50;4985255;28;20632;-66
2020/12/31 06:24:35;;;;;;;10.60;9.70;;;;;;;-0.69;100.00;97124.34;4997956;28;20217;-67
2020/12/31 06:27:07;;;;;;;11.30;10.30;;;;;;;-0.63;100.00;97124.69;4995536;28;20205;-67
2020/12/31 06:29:39;;;;;;;10.83;9.73;;;;;;;-0.64;100.00;97124.84;4998796;28;20216;-66
2020/12/31 06:32:18;;;;;;;11.90;10.83;;;;;;;-0.54;100.00;97124.97;4994319;28;20216;-66
2020/12/31 06:34:45;;;;;;;11.73;10.70;;;;;;;-0.50;100.00;97124.63;4994512;28;20212;-67
2020/12/31 06:37:13;;;;;;;12.03;11.03;;;;;;;-0.52;100.00;97123.91;4998593;28;20245;-66
2020/12/31 06:39:40;;;;;;;13.30;12.13;;;;;;;-0.49;100.00;97120.25;4999328;28;20205;-66
2020/12/31 06:42:08;;;;;;;12.27;11.17;;;;;;;-0.46;100.00;97117.41;4995669;28;20229;-67
2020/12/31 06:44:35;;;;;;;12.83;11.63;;;;;;;-0.54;100.00;97119.78;4994786;28;20236;-67
2020/12/31 06:47:02;;;;;;;13.00;11.70;;;;;;;-0.66;100.00;97127.53;4993524;28;20224;-68
2020/12/31 06:49:55;;;;;;;12.97;11.63;;;;;;;-0.61;100.00;97116.78;4997033;28;20205;-67
2020/12/31 06:52:23;;;;;;;12.90;11.57;;;;;;;-0.54;100.00;97124.97;4994027;28;20601;-67
2020/12/31 06:54:51;;;;;;;11.97;10.87;;;;;;;-0.50;100.00;97119.41;4992086;28;20448;-69
2020/12/31 06:57:36;;;;;;;13.50;12.30;;;;;;;-0.46;100.00;97117.41;4994624;28;20459;-70
2020/12/31 07:00:04;;;;;;;15.40;13.37;;;;;;;-0.59;100.00;97114.91;4994403;28;20468;-71
2020/12/31 07:02:43;;;;;;;13.00;11.80;;;;;;;-0.71;100.00;97121.03;4995648;28;20487;-70
2020/12/31 07:05:21;;;;;;;14.10;12.80;;;;;;;-0.61;100.00;97124.59;4991822;28;20444;-68
2020/12/31 07:07:48;;;;;;;13.43;12.23;;;;;;;-0.57;100.00;97120.81;4994330;28;20535;-68
2020/12/31 07:10:15;;;;;;;14.27;12.77;;;;;;;-0.76;100.00;97122.22;4995333;28;20205;-68
2020/12/31 07:12:45;;;;;;;14.77;13.07;;;;;;;-0.80;100.00;97128.56;4995086;28;20245;-67
2020/12/31 07:15:14;;;;;;;14.67;13.17;;;;;;;-0.90;100.00;97123.22;4992471;28;20980;-67
2020/12/31 07:17:42;;;;;;;13.60;12.40;;;;;;;-0.89;100.00;97124.91;4995991;28;20208;-67
2020/12/31 07:20:11;;;;;;;14.67;13.17;;;;;;;-0.90;100.00;97125.84;4999113;28;20295;-69
2020/12/31 07:22:39;;;;;;;14.27;12.97;;;;;;;-1.00;100.00;97127.44;4993686;28;20499;-69
2020/12/31 07:25:07;;;;;;;14.30;12.90;;;;;;;-0.97;100.00;97127.22;4989971;28;20448;-68
2020/12/31 07:27:36;;;;;;;12.83;11.63;;;;;;;-1.04;100.00;97134.66;4999284;28;20205;-66
2020/12/31 07:30:14;;;;;;;15.13;13.67;;;;;;;-1.08;100.00;97128.00;4998923;28;20291;-69
2020/12/31 07:32:53;;;;;;;14.27;12.83;;;;;;;-1.13;100.00;97126.69;4998133;28;20455;-70
2020/12/31 07:35:33;;;;;;;14.87;13.37;;;;;;;-1.10;100.00;97122.09;5002203;28;20231;-70
2020/12/31 07:38:04;;;;;;;13.57;12.27;;;;;;;-1.18;100.00;97111.41;4995981;28;20209;-69
2020/12/31 07:40:34;;;;;;;13.83;12.53;;;;;;;-1.18;100.00;97114.84;4996107;28;20221;-69
2020/12/31 07:43:01;;;;;;;13.77;12.33;;;;;;;-1.13;100.00;97122.31;4994661;28;20708;-68
2020/12/31 07:45:29;;;;;;;13.80;12.50;;;;;;;-1.17;100.00;97120.88;4994977;28;20522;-69
2020/12/31 07:47:56;;;;;;;13.60;12.30;;;;;;;-1.14;100.00;97123.25;4997967;28;20448;-69
2020/12/31 07:50:24;;;;;;;12.57;11.47;;;;;;;-1.21;100.00;97112.47;4994748;28;20623;-69
2020/12/31 07:52:51;;;;;;;14.47;13.00;;;;;;;-1.22;100.00;97117.78;4996830;28;20228;-69
2020/12/31 07:55:19;;;;;;;13.47;12.07;;;;;;;-1.14;100.00;97114.63;4994031;28;20266;-70
2020/12/31 07:57:47;;;;;;;13.83;12.63;;;;;;;-1.19;100.00;97110.59;4995060;28;20208;-69
2020/12/31 08:00:15;;;;;;;14.40;13.03;;;;;;;-1.14;100.00;97114.63;4994471;28;20436;-69
2020/12/31 08:02:46;;;;;;;13.63;12.27;;;;;;;-1.17;100.00;97113.91;4995426;28;20247;-68
2020/12/31 08:05:14;;;;;;;13.93;12.63;;;;;;;-1.20;100.00;97110.69;4998791;28;20451;-69
2020/12/31 08:07:41;;;;;;;14.30;12.93;;;;;;;-1.02;100.00;97113.72;4996670;28;20207;-68
2020/12/31 08:10:10;;;;;;;15.77;14.17;;;;;;;-1.08;100.00;97114.16;4998490;28;20592;-68
2020/12/31 08:12:41;;;;;;;14.00;12.80;;;;;;;-1.07;100.00;97115.81;4998050;28;20720;-69
2020/12/31 08:15:08;;;;;;;14.33;12.93;;;;;;;-1.22;100.00;97108.22;4996380;28;20476;-69
2020/12/31 08:17:35;;;;;;;12.83;11.67;;;;;;;-1.16;100.00;97106.94;4995592;28;20454;-68
2020/12/31 08:20:03;;;;;;;14.83;13.23;;;;;;;-1.08;100.00;97109.81;4994861;28;20210;-69
2020/12/31 08:22:38;;;;;;;13.97;12.57;;;;;;;-1.02;100.00;97106.75;4992174;28;20228;-69
2020/12/31 08:25:10;;;;;;;14.30;13.00;;;;;;;-0.96;100.00;97110.66;4992176;28;20220;-68
2020/12/31 08:27:39;;;;;;;12.47;11.27;;;;;;;-1.04;100.00;97113.84;4992774;28;20863;-68
2020/12/31 08:30:07;;;;;;;12.13;10.93;;;;;;;-0.98;100.00;97106.53;4998388;28;20204;-68
2020/12/31 08:32:53;;;;;;;14.03;12.73;;;;;;;-0.99;100.00;97100.47;4994116;28;20333;-67
2020/12/31 08:35:25;;;;;;;11.97;10.87;;;;;;;-0.87;100.00;97111.75;4994036;28;20589;-68
2020/12/31 08:37:59;;;;;;;13.37;12.17;;;;;;;-0.92;100.00;97108.66;4995517;28;20447;-69
2020/12/31 08:40:26;;;;;;;13.67;12.30;;;;;;;-0.87;100.00;97109.16;4997070;28;20682;-68
2020/12/31 08:42:55;;;;;;;12.07;10.97;;;;;;;-0.85;100.00;97098.66;4991922;28;20237;-68
2020/12/31 08:45:29;;;;;;;13.00;11.50;;;;;;;-0.90;100.00;97107.63;4999973;28;20214;-69
2020/12/31 08:48:24;;;;;;;11.53;10.40;;;;;;;-0.96;100.00;97107.25;4999483;28;20209;-69
2020/12/31 08:51:01;;;;;;;11.30;10.23;;;;;;;-0.98;100.00;97103.94;4965820;28;20255;-68
2020/12/31 08:53:28;;;;;;;11.67;10.67;;;;;;;-0.87;100.00;97096.16;5001610;28;20224;-68
2020/12/31 08:55:56;;;;;;;11.90;10.70;;;;;;;-0.93;100.00;97107.00;4998377;28;20213;-69
2020/12/31 08:58:28;;;;;;;11.93;10.87;;;;;;;-0.87;100.00;97103.94;5002566;28;20454;-68
2020/12/31 09:00:55;;;;;;;11.67;10.50;;;;;;;-0.76;100.00;97097.94;4998775;28;20358;-68
2020/12/31 09:03:24;;;;;;;11.90;10.73;;;;;;;-0.63;100.00;97105.69;4998747;28;20237;-68
2020/12/31 09:05:57;;;;;;;11.40;9.80;;;;;;;-0.68;100.00;97095.59;4994956;28;20455;-69
2020/12/31 09:08:25;;;;;;;12.40;11.27;;;;;;;-0.67;100.00;97102.47;4993320;28;20674;-68
2020/12/31 09:11:03;;;;;;;11.83;10.70;;;;;;;-0.53;100.00;97103.22;4995467;28;20213;-69
2020/12/31 09:13:35;;;;;;;10.43;9.53;;;;;;;-0.50;100.00;97106.41;5000015;28;20224;-69
2020/12/31 09:16:09;;;;;;;10.17;9.27;;;;;;;-0.36;100.00;97096.72;4994695;28;20479;-70
2020/12/31 09:18:36;;;;;;;10.63;9.63;;;;;;;-0.31;100.00;97087.59;4998830;28;20204;-67
2020/12/31 09:21:04;;;;;;;9.67;8.77;;;;;;;-0.22;100.00;97083.47;4994803;28;20209;-68
2020/12/31 09:23:31;;;;;;;10.03;9.10;;;;;;;-0.28;100.00;97076.13;4997721;28;20232;-67
2020/12/31 09:25:58;;;;;;;8.77;8.07;;;;;;;-0.33;100.00;97084.28;4995744;28;20198;-67
2020/12/31 09:28:26;;;;;;;9.80;8.97;;;;;;;-0.22;99.68;97082.63;4996076;28;20645;-67
2020/12/31 09:30:55;;;;;;;11.13;10.13;;;;;;;-0.10;99.28;97081.69;4997432;28;20665;-68
2020/12/31 09:33:23;;;;;;;9.03;8.33;;;;;;;-0.19;100.00;97078.00;4994964;28;20253;-68
2020/12/31 09:35:51;;;;;;;9.67;8.77;;;;;;;0.02;98.18;97087.72;4994869;28;20205;-69
2020/12/31 09:38:18;;;;;;;9.37;8.57;;;;;;;-0.09;98.40;97085.94;4994422;28;20209;-68
2020/12/31 09:40:46;;;;;;;9.20;8.43;;;;;;;0.18;97.04;97079.50;4994136;28;20209;-67
2020/12/31 09:43:13;;;;;;;10.97;9.60;;;;;;;0.19;96.49;97078.59;4997304;28;20237;-67
2020/12/31 09:45:40;;;;;;;9.03;8.20;;;;;;;0.63;96.71;97082.97;4993482;28;20217;-69
2020/12/31 09:48:08;;;;;;;10.17;8.40;;;;;;;0.78;94.64;97073.88;4992568;28;20205;-68
2020/12/31 09:50:35;;;;;;;7.73;7.07;;;;;;;0.84;93.53;97073.38;4993600;28;20721;-67
2020/12/31 09:53:02;;;;;;;8.03;7.23;;;;;;;0.73;92.38;97076.06;5000020;28;20232;-68
2020/12/31 09:55:42;;;;;;;8.03;7.33;;;;;;;0.76;91.29;97062.75;4998724;28;20369;-68
2020/12/31 09:58:09;;;;;;;6.67;6.10;;;;;;;0.81;90.87;97065.00;4994894;28;20216;-67
2020/12/31 10:00:36;;;;;;;7.57;6.97;;;;;;;0.67;91.84;97066.13;5002616;28;20304;-68
2020/12/31 10:03:04;;;;;;;7.93;7.23;;;;;;;0.74;91.32;97062.06;4997262;28;20237;-68
2020/12/31 10:05:32;;;;;;;7.73;7.03;;;;;;;0.84;91.24;97062.94;4995621;28;20207;-68
2020/12/31 10:07:59;;;;;;;8.20;7.57;;;;;;;0.85;90.29;97056.78;4995877;28;20205;-68
2020/12/31 10:10:26;;;;;;;9.50;8.67;;;;;;;0.95;89.51;97043.00;4999138;28;20212;-68
2020/12/31 10:12:53;;;;;;;7.87;7.17;;;;;;;1.06;89.71;97044.69;5000027;28;20233;-67
2020/12/31 10:15:20;;;;;;;7.30;6.70;;;;;;;1.18;87.63;97045.47;4995683;28;20220;-68
2020/12/31 10:17:47;;;;;;;7.73;7.03;;;;;;;1.21;88.77;97047.81;4997665;28;20205;-68
2020/12/31 10:20:14;;;;;;;7.30;6.80;;;;;;;1.30;87.29;97042.66;4999182;28;20625;-67
2020/12/31 10:22:42;;;;;;;7.47;6.87;;;;;;;1.47;85.84;97031.75;4994335;28;20299;-68
2020/12/31 10:25:09;;;;;;;6.43;5.93;;;;;;;1.59;84.64;97035.91;4995055;28;20213;-67
2020/12/31 10:27:36;;;;;;;7.60;6.87;;;;;;;1.62;84.87;97030.44;4996412;28;20201;-67
2020/12/31 10:30:03;;;;;;;9.17;7.37;;;;;;;1.65;84.04;97032.78;4998317;28;20796;-67
2020/12/31 10:32:30;;;;;;;6.00;5.50;;;;;;;1.76;83.10;97028.44;4997736;28;20229;-68
2020/12/31 10:34:57;;;;;;;7.00;6.30;;;;;;;1.71;83.12;97026.22;4995283;28;20200;-67
2020/12/31 10:37:27;;;;;;;6.37;5.87;;;;;;;1.95;82.71;97028.47;4997438;28;20209;-67
2020/12/31 10:39:55;;;;;;;6.90;6.40;;;;;;;1.99;81.82;97021.22;4997232;28;20897;-69
2020/12/31 10:42:22;;;;;;;6.23;5.73;;;;;;;1.95;81.00;97020.66;4996760;28;20236;-67
2020/12/31 10:44:49;;;;;;;5.33;5.03;;;;;;;2.01;80.27;97017.50;4995477;28;20957;-67
2020/12/31 10:47:17;;;;;;;5.70;5.20;;;;;;;2.17;78.74;97003.09;4994155;28;20208;-67
2020/12/31 10:49:44;;;;;;;6.70;6.10;;;;;;;2.22;78.73;97005.28;4996042;28;20205;-67
2020/12/31 10:52:11;;;;;;;5.60;5.10;;;;;;;2.18;78.06;96996.91;4996243;28;20235;-68
2020/12/31 10:54:37;;;;;;;5.63;5.23;;;;;;;2.33;78.24;96988.66;4998620;28;20213;-68
2020/12/31 10:57:06;;;;;;;5.50;5.10;;;;;;;2.40;75.99;96993.19;4994158;28;20233;-68
2020/12/31 10:59:33;;;;;;;5.37;4.97;;;;;;;2.28;76.46;96978.63;4990976;28;20208;-68
2020/12/31 11:02:00;;;;;;;5.00;4.60;;;;;;;2.67;73.70;96983.00;4994112;28;20710;-69
2020/12/31 11:04:28;;;;;;;5.77;5.33;;;;;;;2.61;73.64;96973.91;4990602;28;20321;-68
2020/12/31 11:06:54;;;;;;;4.70;4.40;;;;;;;2.53;73.72;96973.78;4999124;28;20209;-69
2020/12/31 11:09:21;;;;;;;4.43;3.87;;;;;;;2.59;73.63;96966.22;4997486;28;20471;-68
2020/12/31 11:11:48;;;;;;;4.47;4.17;;;;;;;2.63;71.57;96964.13;4996583;28;20225;-68
2020/12/31 11:14:16;;;;;;;5.53;5.03;;;;;;;2.59;71.50;96954.91;4997450;28;20201;-68
2020/12/31 11:16:47;;;;;;;4.73;4.33;;;;;;;2.73;70.52;96953.66;4998001;28;20660;-67
2020/12/31 11:19:14;;;;;;;4.77;4.47;;;;;;;2.69;70.36;96957.53;4997332;28;20225;-68
2020/12/31 11:21:41;;;;;;;4.60;4.20;;;;;;;2.89;69.02;96953.94;4992638;28;20229;-67
2020/12/31 11:24:08;;;;;;;4.50;4.20;;;;;;;3.07;69.27;96936.66;4991128;28;20225;-67
2020/12/31 11:26:35;;;;;;;4.00;3.70;;;;;;;3.12;69.60;96940.47;4991709;28;20209;-67
2020/12/31 11:29:03;;;;;;;4.73;4.33;;;;;;;3.10;67.84;96939.81;4994970;28;20240;-68
2020/12/31 11:31:31;;;;;;;4.47;4.17;;;;;;;3.19;67.88;96935.50;4997460;28;20296;-67